createdAt,value
2019-01-25T00:00:22.860Z,26.17
2019-01-25T00:02:51.685Z,23.97
2019-01-25T00:05:20.402Z,25.30
2019-01-25T00:07:49.154Z,24.20
2019-01-25T00:10:17.945Z,22.67
2019-01-25T00:12:46.767Z,23.37
2019-01-25T00:15:15.868Z,25.13
2019-01-25T00:17:44.617Z,25.80
2019-01-25T00:20:14.179Z,23.33
2019-01-25T00:22:42.882Z,22.80
2019-01-25T00:25:11.785Z,21.70
2019-01-25T00:27:40.515Z,22.83
2019-01-25T00:30:12.172Z,20.63
2019-01-25T00:32:40.905Z,19.83
2019-01-25T00:35:09.799Z,21.90
2019-01-25T00:37:38.519Z,22.13
2019-01-25T00:40:10.445Z,22.77
2019-01-25T00:42:39.164Z,24.60
2019-01-25T00:45:09.948Z,23.97
2019-01-25T00:47:38.675Z,23.33
2019-01-25T00:50:10.401Z,21.53
2019-01-25T00:52:39.100Z,24.10
2019-01-25T00:55:08.831Z,23.50
2019-01-25T00:57:37.598Z,23.20
2019-01-25T01:00:21.490Z,23.20
2019-01-25T01:02:50.500Z,22.00
2019-01-25T01:05:19.789Z,21.60
2019-01-25T01:07:50.734Z,22.03
2019-01-25T01:10:19.720Z,20.53
2019-01-25T01:12:48.472Z,20.47
2019-01-25T01:15:17.604Z,21.80
2019-01-25T01:17:46.486Z,22.33
2019-01-25T01:20:17.321Z,21.50
2019-01-25T01:22:46.126Z,22.10
2019-01-25T01:25:14.981Z,21.13
2019-01-25T01:27:43.899Z,23.90
2019-01-25T01:30:15.770Z,22.00
2019-01-25T01:32:44.492Z,23.77
2019-01-25T01:35:13.227Z,23.20
2019-01-25T01:37:41.949Z,23.23
2019-01-25T01:40:21.945Z,23.10
2019-01-25T01:42:50.510Z,22.33
2019-01-25T01:45:19.319Z,22.13
2019-01-25T01:47:48.061Z,23.40
2019-01-25T01:50:18.348Z,21.20
2019-01-25T01:52:48.088Z,19.30
2019-01-25T01:55:16.870Z,21.30
2019-01-25T01:57:45.598Z,22.13
2019-01-25T02:00:19.967Z,22.10
2019-01-25T02:02:48.840Z,21.67
2019-01-25T02:05:17.770Z,22.20
2019-01-25T02:07:46.611Z,20.13
2019-01-25T02:10:18.337Z,20.73
2019-01-25T02:12:47.038Z,20.63
2019-01-25T02:15:17.558Z,21.60
2019-01-25T02:17:46.389Z,21.03
2019-01-25T02:20:18.357Z,22.03
2019-01-25T02:22:47.045Z,19.70
2019-01-25T02:25:15.789Z,23.20
2019-01-25T02:27:44.471Z,21.90
2019-01-25T02:30:18.674Z,21.20
2019-01-25T02:32:47.584Z,18.90
2019-01-25T02:35:16.844Z,20.93
2019-01-25T02:37:45.698Z,19.80
2019-01-25T02:40:17.008Z,21.60
2019-01-25T02:42:45.774Z,21.10
2019-01-25T02:45:14.719Z,21.00
2019-01-25T02:47:43.524Z,19.50
2019-01-25T02:50:15.141Z,20.97
2019-01-25T02:52:43.862Z,20.43
2019-01-25T02:55:13.990Z,20.10
2019-01-25T02:57:42.685Z,20.23
2019-01-25T03:00:19.869Z,21.80
2019-01-25T03:02:49.060Z,20.13
2019-01-25T03:05:19.456Z,19.23
2019-01-25T03:07:48.269Z,18.50
2019-01-25T03:10:19.074Z,21.23
2019-01-25T03:12:47.902Z,19.53
2019-01-25T03:15:18.737Z,21.70
2019-01-25T03:17:47.620Z,19.87
2019-01-25T03:20:18.304Z,20.50
2019-01-25T03:22:47.111Z,21.47
2019-01-25T03:25:23.998Z,20.57
2019-01-25T03:27:52.698Z,20.13
2019-01-25T03:30:23.396Z,20.43
2019-01-25T03:32:52.354Z,20.33
2019-01-25T03:35:23.379Z,21.50
2019-01-25T03:37:52.683Z,22.07
2019-01-25T03:40:23.668Z,21.03
2019-01-25T03:42:52.490Z,21.53
2019-01-25T03:45:21.576Z,19.97
2019-01-25T03:47:50.264Z,21.00
2019-01-25T03:50:24.732Z,22.87
2019-01-25T03:52:53.423Z,22.00
2019-01-25T03:55:22.303Z,21.00
2019-01-25T03:57:51.182Z,21.57
2019-01-25T04:00:27.669Z,21.13
2019-01-25T04:02:56.436Z,22.53
2019-01-25T04:05:25.140Z,22.23
2019-01-25T04:07:53.927Z,19.90
2019-01-25T04:10:25.148Z,23.03
2019-01-25T04:12:53.831Z,22.47
2019-01-25T04:15:24.743Z,19.67
2019-01-25T04:17:53.412Z,23.10
2019-01-25T04:20:23.329Z,22.20
2019-01-25T04:22:52.496Z,22.83
2019-01-25T04:25:22.504Z,23.00
2019-01-25T04:27:51.712Z,22.40
2019-01-25T04:30:25.926Z,21.13
2019-01-25T04:32:54.597Z,20.90
2019-01-25T04:35:23.316Z,23.10
2019-01-25T04:37:52.027Z,22.63
2019-01-25T04:40:21.714Z,22.90
2019-01-25T04:42:51.191Z,23.27
2019-01-25T04:45:21.430Z,23.13
2019-01-25T04:47:50.204Z,21.13
2019-01-25T04:50:23.955Z,23.57
2019-01-25T04:52:52.940Z,23.00
2019-01-25T04:55:23.245Z,22.90
2019-01-25T04:57:52.159Z,26.17
2019-01-25T05:00:24.571Z,24.07
2019-01-25T05:02:58.001Z,23.30
2019-01-25T05:05:27.124Z,25.17
2019-01-25T05:08:13.075Z,24.10
2019-01-25T05:10:41.812Z,23.63
2019-01-25T05:13:10.606Z,23.03
2019-01-25T05:15:39.284Z,23.37
2019-01-25T05:18:08.704Z,26.00
2019-01-25T05:20:37.475Z,23.47
2019-01-25T05:23:07.898Z,24.17
2019-01-25T05:25:36.683Z,25.17
2019-01-25T05:28:10.979Z,25.37
2019-01-25T05:30:39.863Z,24.47
2019-01-25T05:33:08.545Z,24.20
2019-01-25T05:35:37.844Z,25.17
2019-01-25T05:38:06.514Z,26.00
2019-01-25T05:40:35.224Z,25.67
2019-01-25T05:43:04.111Z,28.73
2019-01-25T05:45:32.807Z,30.10
2019-01-25T05:48:01.515Z,27.07
2019-01-25T05:50:30.222Z,28.63
2019-01-25T05:52:58.959Z,28.10
2019-01-25T05:55:27.664Z,29.17
2019-01-25T05:58:04.793Z,29.60
2019-01-25T06:00:37.908Z,28.57
2019-01-25T06:03:09.260Z,28.10
2019-01-25T06:05:38.170Z,30.53
2019-01-25T06:08:13.662Z,28.83
2019-01-25T06:10:42.405Z,28.60
2019-01-25T06:13:11.126Z,28.73
2019-01-25T06:15:39.821Z,32.53
2019-01-25T06:18:08.671Z,32.80
2019-01-25T06:20:37.348Z,32.47
2019-01-25T06:23:06.038Z,32.67
2019-01-25T06:25:34.916Z,34.40
2019-01-25T06:28:06.389Z,32.33
2019-01-25T06:30:35.085Z,33.43
2019-01-25T06:33:03.826Z,31.90
2019-01-25T06:35:32.602Z,33.10
2019-01-25T06:38:01.306Z,32.67
2019-01-25T06:40:30.347Z,33.30
2019-01-25T06:42:59.094Z,31.73
2019-01-25T06:45:27.798Z,32.97
2019-01-25T06:47:56.544Z,30.93
2019-01-25T06:50:25.318Z,33.63
2019-01-25T06:52:53.991Z,32.23
2019-01-25T06:55:22.692Z,30.50
2019-01-25T06:57:52.973Z,33.07
2019-01-25T07:00:23.246Z,33.53
2019-01-25T07:02:51.915Z,33.77
2019-01-25T07:05:20.722Z,32.40
2019-01-25T07:07:49.436Z,30.60
2019-01-25T07:10:20.053Z,33.60
2019-01-25T07:12:48.779Z,32.83
2019-01-25T07:15:21.867Z,33.20
2019-01-25T07:17:50.566Z,32.27
2019-01-25T07:20:19.237Z,32.70
2019-01-25T07:22:47.964Z,32.93
2019-01-25T07:25:16.996Z,33.37
2019-01-25T07:27:45.707Z,32.53
2019-01-25T07:30:16.409Z,30.90
2019-01-25T07:32:45.392Z,28.00
2019-01-25T07:35:14.149Z,30.47
2019-01-25T07:37:43.004Z,29.57
2019-01-25T07:40:12.349Z,31.77
2019-01-25T07:42:41.162Z,32.13
2019-01-25T07:45:12.821Z,32.57
2019-01-25T07:47:41.653Z,35.77
2019-01-25T07:50:13.711Z,30.63
2019-01-25T07:52:42.513Z,32.27
2019-01-25T07:55:12.679Z,31.57
2019-01-25T07:57:41.646Z,29.20
2019-01-25T08:00:13.319Z,29.80
2019-01-25T08:02:42.101Z,28.93
2019-01-25T08:05:10.973Z,24.57
2019-01-25T08:07:40.180Z,24.43
2019-01-25T08:10:17.315Z,26.00
2019-01-25T08:12:46.040Z,27.10
2019-01-25T08:15:25.690Z,27.30
2019-01-25T08:17:54.405Z,26.50
2019-01-25T08:20:23.269Z,25.20
2019-01-25T08:22:52.172Z,26.50
2019-01-25T08:25:20.911Z,25.00
2019-01-25T08:27:49.696Z,23.37
2019-01-25T08:30:20.350Z,25.87
2019-01-25T08:32:52.500Z,24.53
2019-01-25T08:35:21.659Z,25.27
2019-01-25T08:37:50.550Z,24.40
2019-01-25T08:40:19.517Z,24.30
2019-01-25T08:42:48.377Z,24.50
2019-01-25T08:45:18.399Z,22.17
2019-01-25T08:47:47.210Z,23.13
2019-01-25T08:50:26.756Z,24.03
2019-01-25T08:52:55.580Z,20.63
2019-01-25T08:55:24.433Z,22.43
2019-01-25T08:57:53.319Z,22.90
2019-01-25T09:00:26.418Z,21.47
2019-01-25T09:02:55.104Z,25.60
2019-01-25T09:05:24.060Z,22.20
2019-01-25T09:07:52.782Z,21.63
2019-01-25T09:10:23.705Z,25.10
2019-01-25T09:12:52.378Z,23.93
2019-01-25T09:15:26.561Z,23.30
2019-01-25T09:17:55.324Z,27.07
2019-01-25T09:20:24.072Z,23.50
2019-01-25T09:22:52.859Z,25.00
2019-01-25T09:25:21.547Z,23.50
2019-01-25T09:27:50.245Z,23.87
2019-01-25T09:30:21.024Z,22.93
2019-01-25T09:32:49.833Z,25.40
2019-01-25T09:35:19.250Z,24.73
2019-01-25T09:37:49.452Z,22.80
2019-01-25T09:40:22.009Z,24.47
2019-01-25T09:42:51.210Z,23.10
2019-01-25T09:45:20.171Z,21.13
2019-01-25T09:47:48.970Z,22.73
2019-01-25T09:50:22.235Z,23.80
2019-01-25T09:52:51.723Z,23.13
2019-01-25T09:55:26.905Z,23.33
2019-01-25T09:58:01.716Z,24.20
2019-01-25T10:00:35.916Z,23.73
2019-01-25T10:03:04.644Z,26.73
2019-01-25T10:05:33.438Z,25.17
2019-01-25T10:08:02.189Z,28.30
2019-01-25T10:10:30.933Z,25.57
2019-01-25T10:12:59.627Z,25.10
2019-01-25T10:15:29.515Z,25.17
2019-01-25T10:17:58.198Z,24.90
2019-01-25T10:20:27.018Z,25.60
2019-01-25T10:22:55.694Z,24.13
2019-01-25T10:25:24.462Z,28.00
2019-01-25T10:27:53.148Z,25.43
2019-01-25T10:30:29.471Z,25.53
2019-01-25T10:32:58.255Z,24.27
2019-01-25T10:35:26.923Z,24.47
2019-01-25T10:37:55.617Z,23.90
2019-01-25T10:40:24.501Z,24.30
2019-01-25T10:42:53.831Z,24.80
2019-01-25T10:45:25.391Z,24.00
2019-01-25T10:47:54.112Z,26.13
2019-01-25T10:50:22.843Z,23.97
2019-01-25T10:52:51.554Z,24.93
2019-01-25T10:55:20.446Z,22.70
2019-01-25T10:57:49.180Z,25.90
2019-01-25T11:00:22.809Z,25.70
2019-01-25T11:02:58.171Z,25.37
2019-01-25T11:05:27.090Z,26.47
2019-01-25T11:07:55.996Z,29.20
2019-01-25T11:10:24.660Z,30.07
2019-01-25T11:13:00.521Z,31.03
2019-01-25T11:15:25.401Z,31.10
2019-01-25T11:17:54.127Z,30.10
2019-01-25T11:20:24.727Z,33.53
2019-01-25T11:22:53.830Z,31.77
2019-01-25T11:25:31.008Z,33.10
2019-01-25T11:27:59.712Z,32.77
2019-01-25T11:30:28.401Z,31.17
2019-01-25T11:32:57.111Z,30.30
2019-01-25T11:35:25.822Z,29.50
2019-01-25T11:37:54.650Z,32.77
2019-01-25T11:40:28.702Z,29.23
2019-01-25T11:42:57.389Z,30.80
2019-01-25T11:45:26.078Z,29.13
2019-01-25T11:47:54.791Z,29.80
2019-01-25T11:50:23.467Z,25.33
2019-01-25T11:52:52.229Z,26.40
2019-01-25T11:55:20.992Z,25.70
2019-01-25T11:57:49.710Z,29.23
2019-01-25T12:00:21.495Z,27.60
2019-01-25T12:02:50.408Z,28.13
2019-01-25T12:05:21.114Z,27.77
2019-01-25T12:07:50.102Z,26.47
2019-01-25T12:10:30.384Z,25.90
2019-01-25T12:12:59.116Z,27.57
2019-01-25T12:15:27.828Z,24.63
2019-01-25T12:17:56.543Z,27.87
2019-01-25T12:20:30.115Z,25.63
2019-01-25T12:22:58.839Z,25.27
2019-01-25T12:25:27.684Z,24.10
2019-01-25T12:27:56.636Z,25.20
2019-01-25T12:30:27.593Z,23.73
2019-01-25T12:32:57.003Z,25.07
2019-01-25T12:35:27.214Z,24.33
2019-01-25T12:37:55.957Z,24.43
2019-01-25T12:40:24.724Z,26.17
2019-01-25T12:42:53.431Z,24.73
2019-01-25T12:45:24.359Z,24.30
2019-01-25T12:47:53.048Z,25.90
2019-01-25T12:50:30.332Z,26.10
2019-01-25T12:52:59.687Z,25.47
2019-01-25T12:55:32.591Z,23.30
2019-01-25T12:57:58.784Z,28.20
2019-01-25T13:00:27.518Z,23.87
2019-01-25T13:02:56.407Z,24.30
2019-01-25T13:05:25.126Z,24.57
2019-01-25T13:07:53.845Z,25.53
2019-01-25T13:10:24.897Z,24.13
2019-01-25T13:12:53.712Z,23.93
2019-01-25T13:15:22.407Z,24.37
2019-01-25T13:17:51.184Z,25.00
2019-01-25T13:20:30.619Z,24.50
2019-01-25T13:22:59.616Z,23.27
2019-01-25T13:25:28.365Z,21.57
2019-01-25T13:27:57.272Z,25.30
2019-01-25T13:30:28.003Z,21.20
2019-01-25T13:32:57.105Z,22.20
2019-01-25T13:35:25.991Z,18.57
2019-01-25T13:37:54.856Z,19.57
2019-01-25T13:40:25.253Z,20.33
2019-01-25T13:42:54.074Z,18.77
2019-01-25T13:45:23.979Z,18.77
2019-01-25T13:47:53.174Z,18.87
2019-01-25T13:50:26.920Z,19.10
2019-01-25T13:52:56.337Z,18.73
2019-01-25T13:55:25.624Z,20.10
2019-01-25T13:57:55.629Z,19.10
2019-01-25T14:00:29.476Z,19.00
2019-01-25T14:02:58.211Z,18.20
2019-01-25T14:05:28.347Z,17.87
2019-01-25T14:07:57.291Z,20.10
2019-01-25T14:10:31.499Z,18.27
2019-01-25T14:13:00.204Z,17.70
2019-01-25T14:15:29.103Z,17.40
2019-01-25T14:17:57.822Z,18.20
2019-01-25T14:20:28.635Z,19.37
2019-01-25T14:22:57.351Z,19.10
2019-01-25T14:25:26.336Z,19.27
2019-01-25T14:27:55.027Z,20.57
2019-01-25T14:30:26.780Z,19.13
2019-01-25T14:32:55.502Z,21.13
2019-01-25T14:35:24.212Z,22.10
2019-01-25T14:37:52.922Z,20.40
2019-01-25T14:40:21.796Z,20.80
2019-01-25T14:42:50.550Z,20.77
2019-01-25T14:45:20.359Z,18.67
2019-01-25T14:47:49.354Z,18.87
2019-01-25T14:50:23.751Z,17.60
2019-01-25T14:52:52.613Z,20.73
2019-01-25T14:55:21.295Z,19.30
2019-01-25T14:57:50.104Z,18.13
2019-01-25T15:00:18.819Z,19.30
2019-01-25T15:02:47.481Z,17.77
2019-01-25T15:05:20.387Z,18.37
2019-01-25T15:07:49.059Z,19.83
2019-01-25T15:10:19.542Z,19.50
2019-01-25T15:12:49.755Z,20.20
2019-01-25T15:15:18.439Z,18.20
2019-01-25T15:17:47.238Z,18.47
2019-01-25T15:20:21.660Z,18.50
2019-01-25T15:22:50.619Z,18.53
2019-01-25T15:25:19.303Z,16.47
2019-01-25T15:27:48.030Z,18.30
2019-01-25T15:30:25.400Z,17.20
2019-01-25T15:32:54.340Z,17.57
2019-01-25T15:35:23.167Z,17.03
2019-01-25T15:37:51.858Z,18.73
2019-01-25T15:40:21.705Z,17.43
2019-01-25T15:42:50.390Z,15.87
2019-01-25T15:45:20.445Z,17.10
2019-01-25T15:47:49.461Z,18.30
2019-01-25T15:50:21.112Z,16.20
2019-01-25T15:52:49.801Z,16.87
2019-01-25T15:55:19.327Z,17.97
2019-01-25T15:57:48.063Z,17.57
2019-01-25T16:00:19.319Z,16.20
2019-01-25T16:02:48.047Z,18.93
2019-01-25T16:05:18.337Z,18.60
2019-01-25T16:07:47.163Z,21.40
2019-01-25T16:10:22.774Z,19.33
2019-01-25T16:12:51.988Z,17.60
2019-01-25T16:15:25.881Z,20.20
2019-01-25T16:17:54.603Z,20.13
2019-01-25T16:20:23.426Z,18.57
2019-01-25T16:22:53.742Z,19.80
2019-01-25T16:25:25.527Z,18.77
2019-01-25T16:27:54.213Z,19.27
2019-01-25T16:30:25.411Z,17.90
2019-01-25T16:32:54.099Z,18.17
2019-01-25T16:35:22.818Z,18.73
2019-01-25T16:37:51.484Z,18.17
2019-01-25T16:40:22.708Z,19.97
2019-01-25T16:42:51.495Z,18.63
2019-01-25T16:45:29.110Z,19.07
2019-01-25T16:47:57.782Z,18.00
2019-01-25T16:50:26.524Z,20.57
2019-01-25T16:52:55.212Z,20.20
2019-01-25T16:55:24.043Z,20.03
2019-01-25T16:57:52.755Z,17.37
2019-01-25T17:00:24.142Z,16.97
2019-01-25T17:02:52.865Z,15.93
2019-01-25T17:05:21.633Z,17.43
2019-01-25T17:07:50.389Z,17.07
2019-01-25T17:10:19.251Z,17.80
2019-01-25T17:12:47.975Z,15.70
2019-01-25T17:15:16.959Z,18.47
2019-01-25T17:17:45.709Z,17.70
2019-01-25T17:20:21.470Z,16.77
2019-01-25T17:22:50.702Z,18.33
2019-01-25T17:25:19.414Z,18.43
2019-01-25T17:27:48.239Z,15.70
2019-01-25T17:30:20.118Z,17.43
2019-01-25T17:32:48.956Z,15.70
2019-01-25T17:35:17.830Z,16.60
2019-01-25T17:37:46.553Z,15.13
2019-01-25T17:40:20.889Z,14.93
2019-01-25T17:42:49.585Z,13.97
2019-01-25T17:45:18.405Z,14.03
2019-01-25T17:47:47.162Z,15.20
2019-01-25T17:50:16.602Z,14.57
2019-01-25T17:52:45.278Z,13.90
2019-01-25T17:55:16.187Z,13.37
2019-01-25T17:57:45.200Z,12.70
2019-01-25T18:00:16.772Z,12.27
2019-01-25T18:02:45.505Z,13.60
2019-01-25T18:05:14.224Z,12.37
2019-01-25T18:07:44.271Z,10.73
2019-01-25T18:10:15.981Z,12.10
2019-01-25T18:12:44.673Z,13.10
2019-01-25T18:15:15.588Z,12.20
2019-01-25T18:17:44.346Z,11.60
2019-01-25T18:20:15.808Z,12.03
2019-01-25T18:22:44.482Z,11.37
2019-01-25T18:25:19.154Z,10.60
2019-01-25T18:27:51.476Z,10.40
2019-01-25T18:30:26.627Z,9.90
2019-01-25T18:32:55.368Z,8.07
2019-01-25T18:35:24.078Z,8.80
2019-01-25T18:37:52.803Z,8.00
2019-01-25T18:40:21.485Z,10.10
2019-01-25T18:42:50.186Z,7.30
2019-01-25T18:45:18.901Z,7.50
2019-01-25T18:47:47.592Z,6.50
2019-01-25T18:50:17.128Z,7.07
2019-01-25T18:52:45.839Z,7.33
2019-01-25T18:55:17.528Z,6.67
2019-01-25T18:57:46.192Z,7.60
2019-01-25T19:00:20.122Z,6.60
2019-01-25T19:02:48.836Z,6.00
2019-01-25T19:05:17.925Z,5.50
2019-01-25T19:07:46.643Z,6.97
2019-01-25T19:10:18.087Z,5.20
2019-01-25T19:12:46.790Z,5.77
2019-01-25T19:15:24.339Z,5.93
2019-01-25T19:17:55.964Z,5.30
2019-01-25T19:20:24.640Z,6.73
2019-01-25T19:22:53.375Z,5.73
2019-01-25T19:25:22.109Z,5.30
2019-01-25T19:27:50.852Z,6.20
2019-01-25T19:30:31.230Z,5.87
2019-01-25T19:32:59.891Z,5.50
2019-01-25T19:35:28.619Z,6.23
2019-01-25T19:38:00.733Z,5.30
2019-01-25T19:40:36.398Z,7.00
2019-01-25T19:43:06.409Z,6.13
2019-01-25T19:45:35.129Z,5.27
2019-01-25T19:48:04.511Z,5.73
2019-01-25T19:50:33.239Z,6.13
2019-01-25T19:53:01.965Z,6.33
2019-01-25T19:55:32.432Z,5.70
2019-01-25T19:58:03.547Z,6.23
2019-01-25T20:00:40.968Z,5.50
2019-01-25T20:03:09.871Z,6.83
2019-01-25T20:05:38.616Z,5.27
2019-01-25T20:08:07.510Z,5.00
2019-01-25T20:10:36.322Z,4.80
2019-01-25T20:13:05.906Z,6.10
2019-01-25T20:15:34.679Z,5.30
2019-01-25T20:18:03.344Z,6.10
2019-01-25T20:20:39.586Z,5.90
2019-01-25T20:23:08.406Z,5.47
2019-01-25T20:25:37.076Z,5.17
2019-01-25T20:28:08.104Z,5.10
2019-01-25T20:30:36.865Z,5.43
2019-01-25T20:33:05.961Z,5.13
2019-01-25T20:35:42.634Z,5.10
2019-01-25T20:38:11.542Z,4.67
2019-01-25T20:40:40.529Z,5.10
2019-01-25T20:43:09.250Z,4.97
2019-01-25T20:45:39.998Z,4.50
2019-01-25T20:48:09.300Z,4.50
2019-01-25T20:50:39.189Z,4.20
2019-01-25T20:53:10.455Z,4.30
2019-01-25T20:55:39.374Z,5.37
2019-01-25T20:58:08.310Z,5.20
2019-01-25T21:00:39.440Z,4.53
2019-01-25T21:03:10.610Z,4.20
2019-01-25T21:05:39.270Z,4.43
2019-01-25T21:08:08.005Z,5.17
2019-01-25T21:10:36.696Z,4.70
2019-01-25T21:13:05.531Z,4.40
2019-01-25T21:15:35.450Z,4.00
2019-01-25T21:18:05.343Z,4.97
2019-01-25T21:20:39.825Z,3.87
2019-01-25T21:23:08.663Z,3.77
2019-01-25T21:25:37.539Z,4.40
2019-01-25T21:28:06.535Z,4.60
2019-01-25T21:30:36.809Z,6.20
2019-01-25T21:33:06.185Z,5.07
2019-01-25T21:35:34.922Z,4.47
2019-01-25T21:38:04.183Z,4.33
2019-01-25T21:40:34.311Z,4.23
2019-01-25T21:43:02.986Z,5.10
2019-01-25T21:45:33.476Z,4.20
2019-01-25T21:48:03.107Z,4.40
2019-01-25T21:50:34.604Z,3.80
2019-01-25T21:53:03.302Z,4.33
2019-01-25T21:55:31.984Z,3.90
2019-01-25T21:58:05.426Z,4.70
2019-01-25T22:00:33.193Z,3.20
2019-01-25T22:03:01.990Z,3.17
2019-01-25T22:05:30.891Z,4.37
2019-01-25T22:07:59.675Z,4.30
2019-01-25T22:10:31.319Z,3.83
2019-01-25T22:13:00.024Z,3.87
2019-01-25T22:15:28.723Z,3.63
2019-01-25T22:17:57.504Z,3.50
2019-01-25T22:20:28.088Z,3.03
2019-01-25T22:22:56.815Z,3.70
2019-01-25T22:25:25.598Z,3.23
2019-01-25T22:27:55.524Z,3.33
2019-01-25T22:30:26.096Z,3.13
2019-01-25T22:32:54.976Z,3.50
2019-01-25T22:35:23.970Z,2.80
2019-01-25T22:37:53.239Z,3.60
2019-01-25T22:40:29.817Z,3.10
2019-01-25T22:42:58.791Z,2.70
2019-01-25T22:45:29.043Z,3.27
2019-01-25T22:47:58.839Z,3.37
2019-01-25T22:50:29.724Z,3.00
2019-01-25T22:53:01.209Z,3.67
2019-01-25T22:55:29.874Z,2.83
2019-01-25T22:57:58.623Z,3.83
2019-01-25T23:00:56.102Z,3.83
2019-01-25T23:03:28.339Z,4.03
2019-01-25T23:06:15.179Z,4.37
2019-01-25T23:08:43.855Z,4.10
2019-01-25T23:11:12.678Z,4.77
2019-01-25T23:13:41.366Z,5.70
2019-01-25T23:16:10.077Z,5.63
2019-01-25T23:18:38.822Z,6.10
2019-01-25T23:21:07.539Z,6.10
2019-01-25T23:23:36.314Z,6.27
2019-01-25T23:26:05.002Z,6.27
2019-01-25T23:28:33.717Z,6.57
2019-01-25T23:31:02.399Z,7.10
2019-01-25T23:33:31.116Z,6.80
2019-01-25T23:35:59.845Z,6.63
2019-01-25T23:38:28.827Z,7.17
2019-01-25T23:40:58.671Z,7.20
2019-01-25T23:43:27.403Z,7.80
2019-01-25T23:45:56.091Z,9.43
2019-01-25T23:48:24.799Z,8.70
2019-01-25T23:50:53.510Z,7.83
2019-01-25T23:53:22.280Z,9.13
2019-01-25T23:55:50.964Z,8.80
2019-01-25T23:58:19.670Z,11.00
